createdAt,value
2019-03-12T00:02:19.227Z,99804.72
2019-03-12T00:04:47.607Z,99804.89
2019-03-12T00:07:16.077Z,99805.84
2019-03-12T00:09:44.592Z,99798.83
2019-03-12T00:12:12.964Z,99800.16
2019-03-12T00:14:41.334Z,99799.38
2019-03-12T00:17:09.839Z,99795.05
2019-03-12T00:19:38.196Z,99807.85
2019-03-12T00:22:06.572Z,99801.25
2019-03-12T00:24:34.999Z,99797.38
2019-03-12T00:27:03.652Z,99801.51
2019-03-12T00:29:32.018Z,99807.74
2019-03-12T00:32:00.401Z,99811.70
2019-03-12T00:34:28.771Z,99809.61
2019-03-12T00:36:57.156Z,99804.41
2019-03-12T00:39:25.765Z,99813.66
2019-03-12T00:41:54.136Z,99809.29
2019-03-12T00:44:22.503Z,99817.80
2019-03-12T00:46:50.882Z,99815.20
2019-03-12T00:49:19.271Z,99815.20
2019-03-12T00:51:47.652Z,99813.52
2019-03-12T00:54:16.021Z,99811.41
2019-03-12T00:56:44.398Z,99815.87
2019-03-12T00:59:12.776Z,99808.86
2019-03-12T01:01:41.159Z,99811.50
2019-03-12T01:04:09.556Z,99806.30
2019-03-12T01:06:37.902Z,99804.62
2019-03-12T01:09:08.306Z,99805.08
2019-03-12T01:11:36.692Z,99800.74
2019-03-12T01:14:05.129Z,99801.66
2019-03-12T01:16:33.505Z,99801.66
2019-03-12T01:19:01.880Z,99797.16
2019-03-12T01:21:30.251Z,99787.59
2019-03-12T01:23:58.636Z,99783.17
2019-03-12T01:26:27.025Z,99783.72
2019-03-12T01:28:56.115Z,99790.81
2019-03-12T01:31:24.493Z,99785.62
2019-03-12T01:33:52.871Z,99777.61
2019-03-12T01:36:21.263Z,99775.06
2019-03-12T01:38:49.645Z,99772.79
2019-03-12T01:41:18.022Z,99774.56
2019-03-12T01:43:46.422Z,99765.41
2019-03-12T01:46:14.774Z,99767.68
2019-03-12T01:48:43.161Z,99761.08
2019-03-12T01:51:11.535Z,99765.13
2019-03-12T01:53:39.920Z,99754.63
2019-03-12T01:56:08.291Z,99755.48
2019-03-12T01:58:36.676Z,99753.80
2019-03-12T02:01:05.306Z,99762.54
2019-03-12T02:03:33.685Z,99763.12
2019-03-12T02:06:02.130Z,99765.27
2019-03-12T02:08:30.524Z,99759.70
2019-03-12T02:10:58.990Z,99756.20
2019-03-12T02:13:27.371Z,99751.38
2019-03-12T02:15:56.510Z,99758.93
2019-03-12T02:18:24.881Z,99753.65
2019-03-12T02:20:53.256Z,99743.09
2019-03-12T02:23:21.631Z,99742.72
2019-03-12T02:25:49.993Z,99743.72
2019-03-12T02:28:18.367Z,99743.55
2019-03-12T02:30:46.755Z,99742.72
2019-03-12T02:33:15.141Z,99733.56
2019-03-12T02:35:43.513Z,99728.75
2019-03-12T02:38:11.978Z,99722.61
2019-03-12T02:40:40.372Z,99724.78
2019-03-12T02:43:08.738Z,99717.88
2019-03-12T02:45:37.099Z,99719.69
2019-03-12T02:48:05.492Z,99714.86
2019-03-12T02:50:34.040Z,99717.59
2019-03-12T02:53:02.408Z,99712.68
2019-03-12T02:55:30.822Z,99713.63
2019-03-12T02:57:59.195Z,99707.12
2019-03-12T03:00:27.567Z,99711.08
2019-03-12T03:02:56.763Z,99695.33
2019-03-12T03:05:25.221Z,99700.03
2019-03-12T03:07:55.357Z,99699.75
2019-03-12T03:10:23.967Z,99703.25
2019-03-12T03:12:52.339Z,99695.87
2019-03-12T03:15:45.377Z,99695.02
2019-03-12T03:18:13.777Z,99696.33
2019-03-12T03:20:42.305Z,99702.16
2019-03-12T03:23:10.670Z,99706.61
2019-03-12T03:25:39.048Z,99703.97
2019-03-12T03:28:07.412Z,99702.64
2019-03-12T03:30:35.862Z,99703.65
2019-03-12T03:33:04.309Z,99704.97
2019-03-12T03:35:32.684Z,99703.65
2019-03-12T03:38:01.049Z,99698.45
2019-03-12T03:40:29.442Z,99698.09
2019-03-12T03:42:57.818Z,99699.86
2019-03-12T03:45:26.176Z,99699.86
2019-03-12T03:47:54.548Z,99696.36
2019-03-12T03:50:22.953Z,99696.36
2019-03-12T03:52:51.299Z,99695.22
2019-03-12T03:55:21.217Z,99696.13
2019-03-12T03:57:49.653Z,99691.34
2019-03-12T04:00:24.900Z,99688.70
2019-03-12T04:02:53.328Z,99683.43
2019-03-12T04:05:21.971Z,99683.89
2019-03-12T04:07:50.378Z,99676.92
2019-03-12T04:10:18.755Z,99674.83
2019-03-12T04:12:47.095Z,99657.50
2019-03-12T04:15:17.106Z,99657.50
2019-03-12T04:17:45.549Z,99666.11
2019-03-12T04:20:18.721Z,99664.50
2019-03-12T04:22:47.131Z,99655.72
2019-03-12T04:25:15.652Z,99653.55
2019-03-12T04:27:44.053Z,99650.63
2019-03-12T04:30:15.002Z,99647.20
2019-03-12T04:32:43.443Z,99644.94
2019-03-12T04:35:34.491Z,99635.34
2019-03-12T04:38:02.853Z,99630.98
2019-03-12T04:40:31.238Z,99627.88
2019-03-12T04:42:59.608Z,99630.23
2019-03-12T04:45:27.981Z,99629.38
2019-03-12T04:47:56.344Z,99631.92
2019-03-12T04:50:24.722Z,99627.11
2019-03-12T04:52:53.162Z,99623.16
2019-03-12T04:55:21.536Z,99624.10
2019-03-12T04:57:49.907Z,99619.28
2019-03-12T05:00:19.433Z,99614.01
2019-03-12T05:02:47.793Z,99611.77
2019-03-12T05:05:16.275Z,99604.78
2019-03-12T05:07:44.781Z,99608.82
2019-03-12T05:10:15.729Z,99601.86
2019-03-12T05:12:44.114Z,99593.08
2019-03-12T05:15:15.392Z,99596.18
2019-03-12T05:17:44.582Z,99593.08
2019-03-12T05:20:14.489Z,99594.77
2019-03-12T05:22:42.947Z,99595.63
2019-03-12T05:25:15.902Z,99590.08
2019-03-12T05:27:44.304Z,99583.48
2019-03-12T05:30:17.346Z,99582.22
2019-03-12T05:32:46.158Z,99581.76
2019-03-12T05:35:14.706Z,99581.39
2019-03-12T05:37:43.309Z,99572.25
2019-03-12T05:40:15.753Z,99572.70
2019-03-12T05:42:44.700Z,99567.34
2019-03-12T05:45:16.895Z,99569.61
2019-03-12T05:47:45.271Z,99570.16
2019-03-12T05:50:14.977Z,99562.70
2019-03-12T05:52:43.416Z,99557.34
2019-03-12T05:55:14.273Z,99556.79
2019-03-12T05:57:42.736Z,99558.02
2019-03-12T06:00:20.398Z,99548.80
2019-03-12T06:02:48.812Z,99554.06
2019-03-12T06:05:17.179Z,99557.56
2019-03-12T06:07:45.556Z,99556.62
2019-03-12T06:10:15.058Z,99556.62
2019-03-12T06:12:44.225Z,99543.06
2019-03-12T06:15:16.426Z,99544.37
2019-03-12T06:17:44.957Z,99543.15
2019-03-12T06:20:16.945Z,99540.11
2019-03-12T06:22:45.325Z,99541.92
2019-03-12T06:25:14.440Z,99534.00
2019-03-12T06:27:42.990Z,99532.28
2019-03-12T06:30:14.336Z,99531.92
2019-03-12T06:32:49.874Z,99527.50
2019-03-12T06:35:34.870Z,99527.87
2019-03-12T06:38:04.895Z,99525.69
2019-03-12T06:40:34.902Z,99517.87
2019-03-12T06:43:10.788Z,99519.73
2019-03-12T06:45:43.587Z,99523.69
2019-03-12T06:48:25.624Z,99517.09
2019-03-12T06:51:01.381Z,99513.23
2019-03-12T06:53:47.817Z,99509.73
2019-03-12T06:56:33.156Z,99500.23
2019-03-12T06:59:03.179Z,99494.00
2019-03-12T07:01:33.197Z,99493.54
2019-03-12T07:04:06.193Z,99489.41
2019-03-12T07:06:38.652Z,99490.00
2019-03-12T07:09:12.569Z,99477.03
2019-03-12T07:11:42.586Z,99464.12
2019-03-12T07:14:12.607Z,99457.38
2019-03-12T07:16:54.662Z,99456.34
2019-03-12T07:19:41.153Z,99450.06
2019-03-12T07:22:22.664Z,99446.47
2019-03-12T07:25:01.643Z,99432.73
2019-03-12T07:27:31.657Z,99434.14
2019-03-12T07:30:07.576Z,99435.73
2019-03-12T07:32:46.393Z,99425.58
2019-03-12T07:35:32.652Z,99416.19
2019-03-12T07:38:02.672Z,99409.97
2019-03-12T07:40:41.690Z,99410.64
2019-03-12T07:43:11.712Z,99396.44
2019-03-12T07:45:50.636Z,99394.56
2019-03-12T07:48:35.962Z,99392.59
2019-03-12T07:51:17.827Z,99390.32
2019-03-12T07:53:59.353Z,99382.04
2019-03-12T07:56:28.032Z,99371.66
2019-03-12T07:58:58.088Z,99364.60
2019-03-12T08:01:30.851Z,99364.05
2019-03-12T08:04:12.895Z,99366.09
2019-03-12T08:06:58.928Z,99362.80
2019-03-12T08:09:28.979Z,99360.10
2019-03-12T08:12:01.702Z,99358.29
2019-03-12T08:14:31.911Z,99351.33
2019-03-12T08:17:17.191Z,99354.73
2019-03-12T08:20:02.471Z,99357.92
2019-03-12T08:22:32.505Z,99350.87
2019-03-12T08:25:11.455Z,99338.89
2019-03-12T08:27:41.513Z,99329.00
2019-03-12T08:30:18.546Z,99326.17
2019-03-12T08:32:48.576Z,99317.69
2019-03-12T08:35:18.632Z,99316.17
2019-03-12T08:37:48.662Z,99302.69
2019-03-12T08:40:18.693Z,99301.06
2019-03-12T08:42:55.119Z,99287.60
2019-03-12T08:45:25.142Z,99282.42
2019-03-12T08:48:12.783Z,99273.23
2019-03-12T08:50:59.327Z,99269.47
2019-03-12T08:53:29.370Z,99269.47
2019-03-12T08:56:17.473Z,99279.53
2019-03-12T08:59:03.479Z,99270.22
2019-03-12T09:01:50.382Z,99261.33
2019-03-12T09:04:20.410Z,99264.20
2019-03-12T09:07:06.822Z,99264.36
2019-03-12T09:09:39.793Z,99263.60
2019-03-12T09:12:15.793Z,99247.56
2019-03-12T09:14:45.817Z,99241.64
2019-03-12T09:17:15.877Z,99241.64
2019-03-12T09:20:01.649Z,99229.64
2019-03-12T09:22:40.426Z,99221.97
2019-03-12T09:25:12.131Z,99210.83
2019-03-12T09:28:33.374Z,99209.59
2019-03-12T09:31:19.814Z,99212.02
2019-03-12T09:33:52.746Z,99191.42
2019-03-12T09:36:22.802Z,99198.75
2019-03-12T09:38:52.868Z,99178.86
2019-03-12T09:41:37.918Z,99186.87
2019-03-12T09:44:24.240Z,99167.97
2019-03-12T09:46:57.462Z,99158.64
2019-03-12T09:49:27.877Z,99153.59
2019-03-12T09:51:58.001Z,99146.98
2019-03-12T09:54:34.244Z,99135.31
2019-03-12T09:57:04.321Z,99127.40
2019-03-12T09:59:50.461Z,99122.27
2019-03-12T10:02:38.297Z,99115.44
2019-03-12T10:05:12.264Z,99110.77
2019-03-12T10:07:45.049Z,99111.52
2019-03-12T10:10:20.866Z,99111.05
2019-03-12T10:13:08.985Z,99102.72
2019-03-12T10:15:44.955Z,99093.11
2019-03-12T10:18:23.497Z,99090.57
2019-03-12T10:20:53.540Z,99081.42
2019-03-12T10:23:26.365Z,99069.24
2019-03-12T10:25:56.401Z,99073.08
2019-03-12T10:28:32.107Z,99065.34
2019-03-12T10:31:07.543Z,99064.24
2019-03-12T10:33:40.211Z,99055.67
2019-03-12T10:36:10.437Z,99053.61
2019-03-12T10:39:22.466Z,99047.61
2019-03-12T10:41:55.333Z,99030.72
2019-03-12T10:44:31.089Z,99032.38
2019-03-12T10:47:01.144Z,99026.98
2019-03-12T10:49:37.308Z,99023.17
2019-03-12T10:52:00.718Z,99009.88
2019-03-12T10:54:29.124Z,98999.59
2019-03-12T10:56:57.529Z,98992.09
2019-03-12T10:59:26.025Z,98980.22
2019-03-12T11:01:54.396Z,98981.73
2019-03-12T11:04:22.786Z,98980.30
2019-03-12T11:06:51.165Z,98970.00
2019-03-12T11:09:20.112Z,98971.86
2019-03-12T11:11:48.859Z,98950.36
2019-03-12T11:14:17.248Z,98951.17
2019-03-12T11:16:45.649Z,98947.17
2019-03-12T11:19:14.109Z,98936.14
2019-03-12T11:21:42.596Z,98935.79
2019-03-12T11:24:11.003Z,98926.23
2019-03-12T11:26:39.388Z,98922.33
2019-03-12T11:29:07.859Z,98922.86
2019-03-12T11:31:36.267Z,98904.26
2019-03-12T11:34:04.686Z,98887.24
2019-03-12T11:36:33.118Z,98907.55
2019-03-12T11:39:01.588Z,98887.79
2019-03-12T11:41:30.030Z,98887.79
2019-03-12T11:43:58.447Z,98890.09
2019-03-12T11:46:26.862Z,98869.25
2019-03-12T11:48:55.350Z,98863.10
2019-03-12T11:51:23.752Z,98868.63
2019-03-12T11:53:52.158Z,98864.47
2019-03-12T11:56:20.636Z,98861.05
2019-03-12T11:58:49.029Z,98863.80
2019-03-12T12:01:17.448Z,98854.41
2019-03-12T12:03:46.027Z,98843.53
2019-03-12T12:06:14.501Z,98836.80
2019-03-12T12:08:42.988Z,98837.36
2019-03-12T12:11:11.390Z,98828.45
2019-03-12T12:13:39.920Z,98818.20
2019-03-12T12:16:08.486Z,98810.15
2019-03-12T12:18:36.861Z,98795.84
2019-03-12T12:21:05.266Z,98795.58
2019-03-12T12:23:33.665Z,98784.47
2019-03-12T12:26:02.064Z,98784.47
2019-03-12T12:28:30.450Z,98785.55
2019-03-12T12:30:58.925Z,98788.28
2019-03-12T12:33:27.519Z,98748.63
2019-03-12T12:35:56.019Z,98748.63
2019-03-12T12:38:24.465Z,98746.09
2019-03-12T12:40:52.970Z,98745.72
2019-03-12T12:43:21.412Z,98725.54
2019-03-12T12:45:49.833Z,98716.52
2019-03-12T12:48:18.218Z,98721.30
2019-03-12T12:50:46.811Z,98708.68
2019-03-12T12:53:15.182Z,98698.61
2019-03-12T12:55:43.672Z,98696.43
2019-03-12T12:58:12.037Z,98688.97
2019-03-12T13:00:40.577Z,98678.52
2019-03-12T13:03:09.078Z,98670.23
2019-03-12T13:05:37.455Z,98660.52
2019-03-12T13:08:05.818Z,98662.42
2019-03-12T13:10:35.167Z,98646.19
2019-03-12T13:13:03.604Z,98652.79
2019-03-12T13:15:32.010Z,98638.38
2019-03-12T13:18:00.375Z,98648.59
2019-03-12T13:20:28.823Z,98633.21
2019-03-12T13:22:57.256Z,98621.78
2019-03-12T13:25:25.643Z,98602.47
2019-03-12T13:27:54.008Z,98606.90
2019-03-12T13:30:23.528Z,98601.14
2019-03-12T13:32:52.122Z,98582.77
2019-03-12T13:35:20.788Z,98585.88
2019-03-12T13:37:49.603Z,98565.20
2019-03-12T13:40:26.623Z,98555.10
2019-03-12T13:42:55.236Z,98546.23
2019-03-12T13:45:29.143Z,98537.92
2019-03-12T13:47:57.643Z,98533.61
2019-03-12T13:50:26.261Z,98522.81
2019-03-12T13:52:54.810Z,98512.71
2019-03-12T13:55:23.344Z,98499.84
2019-03-12T13:57:51.846Z,98509.59
2019-03-12T14:00:27.927Z,98486.76
2019-03-12T14:02:56.376Z,98487.48
2019-03-12T14:05:24.821Z,98469.45
2019-03-12T14:07:53.257Z,98465.02
2019-03-12T14:10:25.406Z,98466.34
2019-03-12T14:12:54.625Z,98442.91
2019-03-12T14:15:38.106Z,98437.63
2019-03-12T14:18:06.927Z,98431.14
2019-03-12T14:20:49.780Z,98421.77
2019-03-12T14:23:24.287Z,98419.03
2019-03-12T14:25:52.871Z,98393.67
2019-03-12T14:28:21.314Z,98421.89
2019-03-12T14:30:49.768Z,98391.63
2019-03-12T14:33:18.369Z,98389.48
2019-03-12T14:35:51.931Z,98377.59
2019-03-12T14:38:17.816Z,98373.00
2019-03-12T14:40:46.424Z,98371.34
2019-03-12T14:43:14.805Z,98362.21
2019-03-12T14:45:47.797Z,98346.36
2019-03-12T14:48:40.003Z,98340.73
2019-03-12T14:51:28.234Z,98325.34
2019-03-12T14:54:02.225Z,98318.87
2019-03-12T14:56:31.733Z,98306.12
2019-03-12T14:59:00.259Z,98303.02
2019-03-12T15:01:28.768Z,98293.90
2019-03-12T15:03:57.242Z,98299.53
2019-03-12T15:06:26.927Z,98286.78
2019-03-12T15:08:55.348Z,98276.59
2019-03-12T15:11:23.759Z,98276.59
2019-03-12T15:13:52.177Z,98265.78
2019-03-12T15:16:20.587Z,98258.36
2019-03-12T15:18:51.864Z,98250.44
2019-03-12T15:21:19.267Z,98246.09
2019-03-12T15:23:47.773Z,98224.02
2019-03-12T15:26:16.151Z,98216.56
2019-03-12T15:28:44.550Z,98210.09
2019-03-12T15:31:12.943Z,98189.89
2019-03-12T15:33:41.327Z,98186.06
2019-03-12T15:36:09.865Z,98180.66
2019-03-12T15:38:38.386Z,98179.12
2019-03-12T15:41:06.910Z,98160.97
2019-03-12T15:43:35.372Z,98165.44
2019-03-12T15:46:03.763Z,98154.88
2019-03-12T15:48:32.154Z,98142.72
2019-03-12T15:51:00.801Z,98140.55
2019-03-12T15:53:29.317Z,98136.93
2019-03-12T15:55:58.919Z,98134.29
2019-03-12T15:58:27.362Z,98121.08
2019-03-12T16:00:55.759Z,98102.12
2019-03-12T16:03:24.218Z,98097.30
2019-03-12T16:05:52.795Z,98085.08
2019-03-12T16:08:21.192Z,98085.55
2019-03-12T16:10:58.088Z,98072.34
2019-03-12T16:13:20.547Z,98064.92
2019-03-12T16:15:48.947Z,98056.16
2019-03-12T16:18:17.330Z,98042.23
2019-03-12T16:20:45.729Z,98030.00
2019-03-12T16:23:14.112Z,98030.34
2019-03-12T16:25:42.507Z,98021.81
2019-03-12T16:28:10.882Z,98018.70
2019-03-12T16:30:39.267Z,98009.58
2019-03-12T16:33:07.809Z,98004.06
2019-03-12T16:35:36.339Z,98009.34
2019-03-12T16:38:07.012Z,97996.61
2019-03-12T16:40:34.978Z,97999.86
2019-03-12T16:43:03.901Z,97995.42
2019-03-12T16:45:32.309Z,97985.12
2019-03-12T16:48:00.764Z,97977.67
2019-03-12T16:50:29.313Z,97971.92
2019-03-12T16:52:57.700Z,97967.48
2019-03-12T16:55:26.086Z,97945.04
2019-03-12T16:57:54.531Z,97939.75
2019-03-12T17:00:23.263Z,97925.84
2019-03-12T17:02:51.642Z,97930.75
2019-03-12T17:05:20.638Z,97918.52
2019-03-12T17:07:49.092Z,97904.00
2019-03-12T17:10:19.135Z,97903.66
2019-03-12T17:12:47.506Z,97899.56
2019-03-12T17:15:18.956Z,97896.92
2019-03-12T17:17:47.412Z,97889.81
2019-03-12T17:20:16.540Z,97893.44
2019-03-12T17:22:44.986Z,97883.72
2019-03-12T17:25:13.976Z,97877.11
2019-03-12T17:27:42.543Z,97877.93
2019-03-12T17:30:22.188Z,97862.73
2019-03-12T17:32:50.568Z,97868.69
2019-03-12T17:35:31.052Z,97853.82
2019-03-12T17:37:59.435Z,97857.45
2019-03-12T17:40:27.811Z,97858.77
2019-03-12T17:42:56.184Z,97855.28
2019-03-12T17:45:24.575Z,97859.10
2019-03-12T17:47:52.962Z,97835.47
2019-03-12T17:50:21.551Z,97826.94
2019-03-12T17:52:50.013Z,97812.89
2019-03-12T17:55:18.385Z,97812.75
2019-03-12T17:57:46.767Z,97803.64
2019-03-12T18:00:28.191Z,97792.74
2019-03-12T18:02:56.515Z,97786.48
2019-03-12T18:05:24.888Z,97785.16
2019-03-12T18:07:53.342Z,97780.21
2019-03-12T18:10:21.714Z,97773.98
2019-03-12T18:12:50.162Z,97765.35
2019-03-12T18:15:20.033Z,97757.43
2019-03-12T18:17:48.898Z,97758.75
2019-03-12T18:20:24.423Z,97754.92
2019-03-12T18:22:52.887Z,97750.83
2019-03-12T18:25:44.431Z,97747.34
2019-03-12T18:28:12.816Z,97752.48
2019-03-12T18:30:41.332Z,97749.17
2019-03-12T18:33:09.717Z,97738.95
2019-03-12T18:35:38.159Z,97742.06
2019-03-12T18:38:06.554Z,97736.78
2019-03-12T18:40:35.022Z,97719.14
2019-03-12T18:43:03.589Z,97714.84
2019-03-12T18:45:34.047Z,97702.11
2019-03-12T18:48:02.433Z,97705.09
2019-03-12T18:50:30.953Z,97702.45
2019-03-12T18:52:59.581Z,97683.02
2019-03-12T18:55:38.408Z,97682.64
2019-03-12T18:58:07.542Z,97681.83
2019-03-12T19:00:37.266Z,97675.23
2019-03-12T19:03:05.820Z,97671.75
2019-03-12T19:05:35.172Z,97642.55
2019-03-12T19:08:03.637Z,97639.02
2019-03-12T19:10:32.019Z,97655.76
2019-03-12T19:13:00.540Z,97646.85
2019-03-12T19:15:28.989Z,97635.95
2019-03-12T19:17:57.720Z,97623.93
2019-03-12T19:20:26.171Z,97619.49
2019-03-12T19:22:54.624Z,97604.59
2019-03-12T19:25:40.961Z,97616.85
2019-03-12T19:28:09.351Z,97608.09
2019-03-12T19:30:37.920Z,97606.14
2019-03-12T19:33:18.132Z,97599.20
2019-03-12T19:35:46.536Z,97602.66
2019-03-12T19:38:15.107Z,97593.09
2019-03-12T19:40:45.583Z,97579.88
2019-03-12T19:43:14.045Z,97585.16
2019-03-12T19:45:42.434Z,97591.95
2019-03-12T19:48:10.814Z,97591.95
2019-03-12T19:50:39.207Z,97594.59
2019-03-12T19:53:07.673Z,97593.42
2019-03-12T19:55:41.632Z,97582.85
2019-03-12T19:58:10.116Z,97582.38
2019-03-12T20:00:39.511Z,97572.66
2019-03-12T20:03:12.038Z,97568.95
2019-03-12T20:05:38.115Z,97568.00
2019-03-12T20:08:06.771Z,97578.70
2019-03-12T20:10:53.682Z,97568.62
2019-03-12T20:13:47.604Z,97562.49
2019-03-12T20:16:19.051Z,97559.38
2019-03-12T20:19:05.705Z,97551.74
2019-03-12T20:21:52.391Z,97545.47
2019-03-12T20:24:57.497Z,97534.21
2019-03-12T20:28:03.442Z,97524.49
2019-03-12T20:31:08.598Z,97535.90
2019-03-12T20:34:02.821Z,97527.75
2019-03-12T20:37:08.088Z,97528.27
2019-03-12T20:40:13.066Z,97534.36
2019-03-12T20:43:02.686Z,97519.98
2019-03-12T20:45:55.430Z,97530.20
2019-03-12T20:49:10.781Z,97527.56
2019-03-12T20:52:07.954Z,97539.08
2019-03-12T20:55:07.094Z,97515.83
2019-03-12T20:57:55.341Z,97523.75
2019-03-12T21:00:52.517Z,97525.88
2019-03-12T21:04:00.836Z,97530.69
2019-03-12T21:06:53.029Z,97533.33
2019-03-12T21:09:58.141Z,97522.28
2019-03-12T21:12:38.701Z,97535.48
2019-03-12T21:15:21.857Z,97553.61
2019-03-12T21:18:09.831Z,97539.59
2019-03-12T21:20:57.548Z,97545.34
2019-03-12T21:23:31.767Z,97546.19
2019-03-12T21:26:20.697Z,97547.00
2019-03-12T21:29:04.398Z,97565.85
2019-03-12T21:31:32.786Z,97561.37
2019-03-12T21:34:01.165Z,97551.33
2019-03-12T21:36:31.118Z,97558.73
2019-03-12T21:38:59.740Z,97567.17
2019-03-12T21:41:28.257Z,97576.89
2019-03-12T21:43:56.627Z,97608.09
2019-03-12T21:46:25.144Z,97597.53
2019-03-12T21:48:53.517Z,97625.26
2019-03-12T21:51:21.908Z,97662.22
2019-03-12T21:53:50.289Z,97683.20
2019-03-12T21:56:18.674Z,97686.80
2019-03-12T21:58:47.057Z,97717.16
2019-03-12T22:01:15.441Z,97721.97
2019-03-12T22:03:43.832Z,97725.09
2019-03-12T22:06:12.206Z,97740.11
2019-03-12T22:08:40.594Z,97745.03
2019-03-12T22:11:08.978Z,97744.69
2019-03-12T22:13:37.369Z,97747.33
2019-03-12T22:16:05.814Z,97755.25
2019-03-12T22:18:34.207Z,97758.38
2019-03-12T22:21:02.598Z,97783.95
2019-03-12T22:23:35.301Z,97784.77
2019-03-12T22:26:03.673Z,97783.12
2019-03-12T22:28:32.063Z,97776.52
2019-03-12T22:31:00.435Z,97766.87
2019-03-12T22:33:28.809Z,97785.86
2019-03-12T22:35:57.185Z,97796.89
2019-03-12T22:38:25.564Z,97802.66
2019-03-12T22:40:53.940Z,97794.39
2019-03-12T22:43:22.314Z,97787.80
2019-03-12T22:45:50.683Z,97801.13
2019-03-12T22:48:19.062Z,97811.22
2019-03-12T22:50:47.431Z,97816.50
2019-03-12T22:53:15.816Z,97825.03
2019-03-12T22:55:44.194Z,97819.38
2019-03-12T22:58:12.578Z,97831.39
2019-03-12T23:00:41.586Z,97830.58
2019-03-12T23:03:09.973Z,97844.12
2019-03-12T23:05:38.350Z,97839.31
2019-03-12T23:08:07.677Z,97854.44
2019-03-12T23:10:36.191Z,97853.63
2019-03-12T23:13:04.562Z,97862.36
2019-03-12T23:15:33.293Z,97863.34
2019-03-12T23:18:01.664Z,97859.05
2019-03-12T23:20:30.037Z,97871.88
2019-03-12T23:22:58.407Z,97868.76
2019-03-12T23:25:26.794Z,97874.98
2019-03-12T23:27:55.163Z,97870.21
2019-03-12T23:30:24.662Z,97885.20
2019-03-12T23:32:53.666Z,97890.14
2019-03-12T23:35:22.061Z,97893.73
2019-03-12T23:37:50.434Z,97891.09
2019-03-12T23:40:19.350Z,97897.22
2019-03-12T23:42:47.725Z,97904.42
2019-03-12T23:45:16.876Z,97910.17
2019-03-12T23:47:45.864Z,97914.27
2019-03-12T23:50:16.918Z,97917.28
2019-03-12T23:52:45.729Z,97931.42
2019-03-12T23:55:15.848Z,97935.52
2019-03-12T23:57:44.449Z,97940.08
